sensor_id;sensor_type;location;lat;lon;timestamp;P1;durP1;ratioP1;P2;durP2;ratioP2
22673;SDS011;11504;43.334;21.918;2024-02-23T00:00:59;26.0;;;24.0;;
22673;SDS011;11504;43.334;21.918;2024-02-23T00:05:35;26.0;;;24.0;;
22673;SDS011;11504;43.334;21.918;2024-02-23T00:10:13;25.0;;;24.0;;
22673;SDS011;11504;43.334;21.918;2024-02-23T00:14:49;25.0;;;24.0;;
22673;SDS011;11504;43.334;21.918;2024-02-23T00:19:25;23.0;;;22.0;;
22673;SDS011;11504;43.334;21.918;2024-02-23T00:24:01;23.0;;;22.0;;
22673;SDS011;11504;43.334;21.918;2024-02-23T00:28:37;21.0;;;20.0;;
22673;SDS011;11504;43.334;21.918;2024-02-23T00:33:13;21.0;;;20.0;;
22673;SDS011;11504;43.334;21.918;2024-02-23T00:37:50;21.0;;;20.0;;
22673;SDS011;11504;43.334;21.918;2024-02-23T00:42:26;21.0;;;20.0;;
22673;SDS011;11504;43.334;21.918;2024-02-23T00:47:02;21.0;;;20.0;;
22673;SDS011;11504;43.334;21.918;2024-02-23T00:51:40;21.0;;;20.0;;
22673;SDS011;11504;43.334;21.918;2024-02-23T00:56:16;21.0;;;20.0;;
22673;SDS011;11504;43.334;21.918;2024-02-23T01:00:52;24.0;;;24.0;;
22673;SDS011;11504;43.334;21.918;2024-02-23T01:05:28;24.0;;;24.0;;
22673;SDS011;11504;43.334;21.918;2024-02-23T01:10:06;28.0;;;27.0;;
22673;SDS011;11504;43.334;21.918;2024-02-23T01:14:44;28.0;;;27.0;;
22673;SDS011;11504;43.334;21.918;2024-02-23T01:19:21;25.0;;;24.0;;
22673;SDS011;11504;43.334;21.918;2024-02-23T01:23:57;25.0;;;24.0;;
22673;SDS011;11504;43.334;21.918;2024-02-23T01:28:33;22.0;;;20.0;;
22673;SDS011;11504;43.334;21.918;2024-02-23T01:33:09;22.0;;;20.0;;
22673;SDS011;11504;43.334;21.918;2024-02-23T01:37:46;22.0;;;20.0;;
22673;SDS011;11504;43.334;21.918;2024-02-23T01:42:22;18.0;;;16.0;;
22673;SDS011;11504;43.334;21.918;2024-02-23T01:46:58;18.0;;;16.0;;
22673;SDS011;11504;43.334;21.918;2024-02-23T01:51:36;14.0;;;13.0;;
22673;SDS011;11504;43.334;21.918;2024-02-23T01:56:14;14.0;;;13.0;;
22673;SDS011;11504;43.334;21.918;2024-02-23T02:00:53;15.0;;;14.0;;
22673;SDS011;11504;43.334;21.918;2024-02-23T02:05:29;15.0;;;14.0;;
22673;SDS011;11504;43.334;21.918;2024-02-23T02:10:09;16.0;;;16.0;;
22673;SDS011;11504;43.334;21.918;2024-02-23T02:14:45;16.0;;;16.0;;
22673;SDS011;11504;43.334;21.918;2024-02-23T02:19:22;16.0;;;16.0;;
22673;SDS011;11504;43.334;21.918;2024-02-23T02:23:59;16.0;;;16.0;;
22673;SDS011;11504;43.334;21.918;2024-02-23T02:28:36;16.0;;;15.0;;
22673;SDS011;11504;43.334;21.918;2024-02-23T02:33:12;16.0;;;15.0;;
22673;SDS011;11504;43.334;21.918;2024-02-23T02:37:49;16.0;;;15.0;;
22673;SDS011;11504;43.334;21.918;2024-02-23T02:42:25;16.0;;;16.0;;
22673;SDS011;11504;43.334;21.918;2024-02-23T02:47:01;16.0;;;16.0;;
22673;SDS011;11504;43.334;21.918;2024-02-23T02:51:38;17.0;;;16.0;;
22673;SDS011;11504;43.334;21.918;2024-02-23T02:56:14;17.0;;;16.0;;
22673;SDS011;11504;43.334;21.918;2024-02-23T03:00:50;16.0;;;15.0;;
22673;SDS011;11504;43.334;21.918;2024-02-23T03:05:27;16.0;;;15.0;;
22673;SDS011;11504;43.334;21.918;2024-02-23T03:10:05;14.0;;;14.0;;
22673;SDS011;11504;43.334;21.918;2024-02-23T03:14:43;14.0;;;14.0;;
22673;SDS011;11504;43.334;21.918;2024-02-23T03:19:20;15.0;;;14.0;;
22673;SDS011;11504;43.334;21.918;2024-02-23T03:23:56;15.0;;;14.0;;
22673;SDS011;11504;43.334;21.918;2024-02-23T03:28:32;15.0;;;14.0;;
22673;SDS011;11504;43.334;21.918;2024-02-23T03:33:08;16.0;;;15.0;;
22673;SDS011;11504;43.334;21.918;2024-02-23T03:37:44;16.0;;;15.0;;
22673;SDS011;11504;43.334;21.918;2024-02-23T03:42:20;15.0;;;14.0;;
22673;SDS011;11504;43.334;21.918;2024-02-23T03:46:56;15.0;;;14.0;;
22673;SDS011;11504;43.334;21.918;2024-02-23T03:51:32;14.0;;;13.0;;
22673;SDS011;11504;43.334;21.918;2024-02-23T03:56:09;14.0;;;13.0;;
22673;SDS011;11504;43.334;21.918;2024-02-23T04:00:45;14.0;;;12.0;;
22673;SDS011;11504;43.334;21.918;2024-02-23T04:05:21;14.0;;;12.0;;
22673;SDS011;11504;43.334;21.918;2024-02-23T04:09:58;13.0;;;12.0;;
22673;SDS011;11504;43.334;21.918;2024-02-23T04:14:35;13.0;;;12.0;;
22673;SDS011;11504;43.334;21.918;2024-02-23T04:19:11;13.0;;;12.0;;
22673;SDS011;11504;43.334;21.918;2024-02-23T04:23:48;13.0;;;12.0;;
22673;SDS011;11504;43.334;21.918;2024-02-23T04:28:24;13.0;;;12.0;;
22673;SDS011;11504;43.334;21.918;2024-02-23T04:33:00;13.0;;;12.0;;
22673;SDS011;11504;43.334;21.918;2024-02-23T04:37:36;13.0;;;12.0;;
22673;SDS011;11504;43.334;21.918;2024-02-23T04:42:12;14.0;;;12.0;;
22673;SDS011;11504;43.334;21.918;2024-02-23T04:46:49;14.0;;;12.0;;
22673;SDS011;11504;43.334;21.918;2024-02-23T04:51:25;14.0;;;12.0;;
22673;SDS011;11504;43.334;21.918;2024-02-23T04:56:02;14.0;;;12.0;;
22673;SDS011;11504;43.334;21.918;2024-02-23T05:00:40;14.0;;;12.0;;
22673;SDS011;11504;43.334;21.918;2024-02-23T05:05:16;14.0;;;12.0;;
22673;SDS011;11504;43.334;21.918;2024-02-23T05:09:52;14.0;;;13.0;;
22673;SDS011;11504;43.334;21.918;2024-02-23T05:14:28;14.0;;;13.0;;
22673;SDS011;11504;43.334;21.918;2024-02-23T05:19:05;13.0;;;12.0;;
22673;SDS011;11504;43.334;21.918;2024-02-23T05:23:41;13.0;;;12.0;;
22673;SDS011;11504;43.334;21.918;2024-02-23T05:28:17;13.0;;;12.0;;
22673;SDS011;11504;43.334;21.918;2024-02-23T05:32:53;12.0;;;10.0;;
22673;SDS011;11504;43.334;21.918;2024-02-23T05:37:29;12.0;;;10.0;;
22673;SDS011;11504;43.334;21.918;2024-02-23T05:42:06;13.0;;;12.0;;
22673;SDS011;11504;43.334;21.918;2024-02-23T05:46:43;13.0;;;12.0;;
22673;SDS011;11504;43.334;21.918;2024-02-23T05:51:19;14.0;;;13.0;;
22673;SDS011;11504;43.334;21.918;2024-02-23T05:55:55;14.0;;;13.0;;
22673;SDS011;11504;43.334;21.918;2024-02-23T06:00:31;16.0;;;15.0;;
22673;SDS011;11504;43.334;21.918;2024-02-23T06:05:08;16.0;;;15.0;;
22673;SDS011;11504;43.334;21.918;2024-02-23T06:09:44;18.0;;;17.0;;
22673;SDS011;11504;43.334;21.918;2024-02-23T06:14:21;18.0;;;17.0;;
22673;SDS011;11504;43.334;21.918;2024-02-23T06:18:57;16.0;;;16.0;;
22673;SDS011;11504;43.334;21.918;2024-02-23T06:23:33;16.0;;;16.0;;
22673;SDS011;11504;43.334;21.918;2024-02-23T06:28:10;16.0;;;16.0;;
22673;SDS011;11504;43.334;21.918;2024-02-23T06:32:46;14.0;;;14.0;;
22673;SDS011;11504;43.334;21.918;2024-02-23T06:37:23;14.0;;;14.0;;
22673;SDS011;11504;43.334;21.918;2024-02-23T06:41:59;16.0;;;16.0;;
22673;SDS011;11504;43.334;21.918;2024-02-23T06:46:36;16.0;;;16.0;;
22673;SDS011;11504;43.334;21.918;2024-02-23T06:51:12;19.0;;;19.0;;
22673;SDS011;11504;43.334;21.918;2024-02-23T06:55:48;19.0;;;19.0;;
22673;SDS011;11504;43.334;21.918;2024-02-23T07:00:24;20.0;;;20.0;;
22673;SDS011;11504;43.334;21.918;2024-02-23T07:05:01;20.0;;;20.0;;
22673;SDS011;11504;43.334;21.918;2024-02-23T07:09:38;21.0;;;20.0;;
22673;SDS011;11504;43.334;21.918;2024-02-23T07:14:15;21.0;;;20.0;;
22673;SDS011;11504;43.334;21.918;2024-02-23T07:18:51;24.0;;;20.0;;
22673;SDS011;11504;43.334;21.918;2024-02-23T07:23:27;24.0;;;20.0;;
22673;SDS011;11504;43.334;21.918;2024-02-23T07:28:05;24.0;;;20.0;;
22673;SDS011;11504;43.334;21.918;2024-02-23T07:32:42;26.0;;;21.0;;
22673;SDS011;11504;43.334;21.918;2024-02-23T07:37:18;26.0;;;21.0;;
22673;SDS011;11504;43.334;21.918;2024-02-23T07:41:55;20.0;;;16.0;;
22673;SDS011;11504;43.334;21.918;2024-02-23T07:46:31;20.0;;;16.0;;
22673;SDS011;11504;43.334;21.918;2024-02-23T07:51:07;13.0;;;12.0;;
22673;SDS011;11504;43.334;21.918;2024-02-23T07:55:44;13.0;;;12.0;;
22673;SDS011;11504;43.334;21.918;2024-02-23T08:00:20;12.0;;;12.0;;
22673;SDS011;11504;43.334;21.918;2024-02-23T08:04:56;12.0;;;12.0;;
22673;SDS011;11504;43.334;21.918;2024-02-23T08:09:32;11.0;;;11.0;;
22673;SDS011;11504;43.334;21.918;2024-02-23T08:14:08;11.0;;;11.0;;
22673;SDS011;11504;43.334;21.918;2024-02-23T08:18:44;11.0;;;11.0;;
22673;SDS011;11504;43.334;21.918;2024-02-23T08:23:20;12.0;;;12.0;;
22673;SDS011;11504;43.334;21.918;2024-02-23T08:27:56;12.0;;;12.0;;
22673;SDS011;11504;43.334;21.918;2024-02-23T08:32:32;13.0;;;13.0;;
22673;SDS011;11504;43.334;21.918;2024-02-23T08:37:09;13.0;;;13.0;;
22673;SDS011;11504;43.334;21.918;2024-02-23T08:41:45;12.0;;;10.0;;
22673;SDS011;11504;43.334;21.918;2024-02-23T08:46:22;12.0;;;10.0;;
22673;SDS011;11504;43.334;21.918;2024-02-23T08:50:58;10.0;;;8.0;;
22673;SDS011;11504;43.334;21.918;2024-02-23T08:55:34;10.0;;;8.0;;
22673;SDS011;11504;43.334;21.918;2024-02-23T09:00:13;10.0;;;9.0;;
22673;SDS011;11504;43.334;21.918;2024-02-23T09:04:51;10.0;;;9.0;;
22673;SDS011;11504;43.334;21.918;2024-02-23T09:09:28;11.0;;;10.0;;
22673;SDS011;11504;43.334;21.918;2024-02-23T09:14:05;11.0;;;10.0;;
22673;SDS011;11504;43.334;21.918;2024-02-23T09:18:41;11.0;;;10.0;;
22673;SDS011;11504;43.334;21.918;2024-02-23T09:23:17;11.0;;;10.0;;
22673;SDS011;11504;43.334;21.918;2024-02-23T09:27:57;11.0;;;10.0;;
22673;SDS011;11504;43.334;21.918;2024-02-23T09:32:34;11.0;;;11.0;;
22673;SDS011;11504;43.334;21.918;2024-02-23T09:37:10;11.0;;;11.0;;
22673;SDS011;11504;43.334;21.918;2024-02-23T09:41:50;12.0;;;12.0;;
22673;SDS011;11504;43.334;21.918;2024-02-23T09:46:27;12.0;;;12.0;;
22673;SDS011;11504;43.334;21.918;2024-02-23T09:51:06;12.0;;;12.0;;
22673;SDS011;11504;43.334;21.918;2024-02-23T09:55:45;12.0;;;12.0;;
22673;SDS011;11504;43.334;21.918;2024-02-23T10:00:24;12.0;;;11.0;;
22673;SDS011;11504;43.334;21.918;2024-02-23T10:05:03;12.0;;;11.0;;
22673;SDS011;11504;43.334;21.918;2024-02-23T10:09:46;11.0;;;10.0;;
22673;SDS011;11504;43.334;21.918;2024-02-23T10:14:23;11.0;;;10.0;;
22673;SDS011;11504;43.334;21.918;2024-02-23T10:18:59;11.0;;;10.0;;
22673;SDS011;11504;43.334;21.918;2024-02-23T10:23:36;11.0;;;10.0;;
22673;SDS011;11504;43.334;21.918;2024-02-23T10:28:12;11.0;;;10.0;;
22673;SDS011;11504;43.334;21.918;2024-02-23T10:32:55;11.0;;;10.0;;
22673;SDS011;11504;43.334;21.918;2024-02-23T10:37:36;11.0;;;10.0;;
22673;SDS011;11504;43.334;21.918;2024-02-23T10:42:13;11.0;;;10.0;;
22673;SDS011;11504;43.334;21.918;2024-02-23T10:47:05;11.0;;;10.0;;
22673;SDS011;11504;43.334;21.918;2024-02-23T10:51:44;11.0;;;10.0;;
22673;SDS011;11504;43.334;21.918;2024-02-23T10:56:20;11.0;;;10.0;;
22673;SDS011;11504;43.334;21.918;2024-02-23T11:01:02;10.0;;;10.0;;
22673;SDS011;11504;43.334;21.918;2024-02-23T11:05:41;10.0;;;10.0;;
22673;SDS011;11504;43.334;21.918;2024-02-23T11:10:18;10.0;;;10.0;;
22673;SDS011;11504;43.334;21.918;2024-02-23T11:14:58;10.0;;;10.0;;
22673;SDS011;11504;43.334;21.918;2024-02-23T11:19:38;10.0;;;10.0;;
22673;SDS011;11504;43.334;21.918;2024-02-23T11:24:16;10.0;;;10.0;;
22673;SDS011;11504;43.334;21.918;2024-02-23T11:28:53;10.0;;;10.0;;
22673;SDS011;11504;43.334;21.918;2024-02-23T11:33:34;10.0;;;10.0;;
22673;SDS011;11504;43.334;21.918;2024-02-23T11:38:13;10.0;;;10.0;;
22673;SDS011;11504;43.334;21.918;2024-02-23T11:42:54;11.0;;;10.0;;
22673;SDS011;11504;43.334;21.918;2024-02-23T11:47:31;11.0;;;10.0;;
22673;SDS011;11504;43.334;21.918;2024-02-23T11:52:08;12.0;;;11.0;;
22673;SDS011;11504;43.334;21.918;2024-02-23T11:56:47;12.0;;;11.0;;
22673;SDS011;11504;43.334;21.918;2024-02-23T12:01:24;12.0;;;10.0;;
22673;SDS011;11504;43.334;21.918;2024-02-23T12:06:02;12.0;;;10.0;;
22673;SDS011;11504;43.334;21.918;2024-02-23T12:10:40;11.0;;;10.0;;
22673;SDS011;11504;43.334;21.918;2024-02-23T12:15:17;11.0;;;10.0;;
22673;SDS011;11504;43.334;21.918;2024-02-23T12:19:58;10.0;;;10.0;;
22673;SDS011;11504;43.334;21.918;2024-02-23T12:24:35;10.0;;;10.0;;
22673;SDS011;11504;43.334;21.918;2024-02-23T12:29:11;9.0;;;9.0;;
22673;SDS011;11504;43.334;21.918;2024-02-23T12:33:47;9.0;;;9.0;;
22673;SDS011;11504;43.334;21.918;2024-02-23T12:38:23;9.0;;;9.0;;
22673;SDS011;11504;43.334;21.918;2024-02-23T12:42:59;10.0;;;10.0;;
22673;SDS011;11504;43.334;21.918;2024-02-23T12:47:37;10.0;;;10.0;;
22673;SDS011;11504;43.334;21.918;2024-02-23T12:52:13;11.0;;;10.0;;
22673;SDS011;11504;43.334;21.918;2024-02-23T12:56:50;11.0;;;10.0;;
22673;SDS011;11504;43.334;21.918;2024-02-23T13:01:27;10.0;;;10.0;;
22673;SDS011;11504;43.334;21.918;2024-02-23T13:06:04;10.0;;;10.0;;
22673;SDS011;11504;43.334;21.918;2024-02-23T13:10:42;10.0;;;9.0;;
22673;SDS011;11504;43.334;21.918;2024-02-23T13:15:19;10.0;;;9.0;;
22673;SDS011;11504;43.334;21.918;2024-02-23T13:19:56;10.0;;;10.0;;
22673;SDS011;11504;43.334;21.918;2024-02-23T13:24:32;10.0;;;10.0;;
22673;SDS011;11504;43.334;21.918;2024-02-23T13:29:08;10.0;;;10.0;;
22673;SDS011;11504;43.334;21.918;2024-02-23T13:33:44;10.0;;;10.0;;
22673;SDS011;11504;43.334;21.918;2024-02-23T13:38:20;10.0;;;10.0;;
22673;SDS011;11504;43.334;21.918;2024-02-23T13:42:56;9.0;;;9.0;;
22673;SDS011;11504;43.334;21.918;2024-02-23T13:47:33;9.0;;;9.0;;
22673;SDS011;11504;43.334;21.918;2024-02-23T13:52:10;8.0;;;8.0;;
22673;SDS011;11504;43.334;21.918;2024-02-23T13:56:46;8.0;;;8.0;;
22673;SDS011;11504;43.334;21.918;2024-02-23T14:01:22;8.0;;;8.0;;
22673;SDS011;11504;43.334;21.918;2024-02-23T14:05:58;8.0;;;8.0;;
22673;SDS011;11504;43.334;21.918;2024-02-23T14:10:35;7.0;;;7.0;;
22673;SDS011;11504;43.334;21.918;2024-02-23T14:15:11;7.0;;;7.0;;
22673;SDS011;11504;43.334;21.918;2024-02-23T14:19:47;8.0;;;8.0;;
22673;SDS011;11504;43.334;21.918;2024-02-23T14:24:23;8.0;;;8.0;;
22673;SDS011;11504;43.334;21.918;2024-02-23T14:28:59;8.0;;;8.0;;
22673;SDS011;11504;43.334;21.918;2024-02-23T14:33:36;9.0;;;8.0;;
22673;SDS011;11504;43.334;21.918;2024-02-23T14:38:12;9.0;;;8.0;;
22673;SDS011;11504;43.334;21.918;2024-02-23T14:42:50;10.0;;;9.0;;
22673;SDS011;11504;43.334;21.918;2024-02-23T14:47:27;10.0;;;9.0;;
22673;SDS011;11504;43.334;21.918;2024-02-23T14:52:04;11.0;;;10.0;;
22673;SDS011;11504;43.334;21.918;2024-02-23T14:56:41;11.0;;;10.0;;
22673;SDS011;11504;43.334;21.918;2024-02-23T15:01:17;10.0;;;10.0;;
22673;SDS011;11504;43.334;21.918;2024-02-23T15:05:54;10.0;;;10.0;;
22673;SDS011;11504;43.334;21.918;2024-02-23T15:10:30;10.0;;;9.0;;
22673;SDS011;11504;43.334;21.918;2024-02-23T15:15:08;10.0;;;9.0;;
22673;SDS011;11504;43.334;21.918;2024-02-23T15:19:44;11.0;;;10.0;;
22673;SDS011;11504;43.334;21.918;2024-02-23T15:24:20;11.0;;;10.0;;
22673;SDS011;11504;43.334;21.918;2024-02-23T15:28:58;11.0;;;10.0;;
22673;SDS011;11504;43.334;21.918;2024-02-23T15:33:35;12.0;;;11.0;;
22673;SDS011;11504;43.334;21.918;2024-02-23T15:38:11;12.0;;;11.0;;
22673;SDS011;11504;43.334;21.918;2024-02-23T15:42:48;12.0;;;11.0;;
22673;SDS011;11504;43.334;21.918;2024-02-23T15:47:25;12.0;;;11.0;;
22673;SDS011;11504;43.334;21.918;2024-02-23T15:52:02;11.0;;;11.0;;
22673;SDS011;11504;43.334;21.918;2024-02-23T15:56:41;11.0;;;11.0;;
22673;SDS011;11504;43.334;21.918;2024-02-23T16:01:20;12.0;;;12.0;;
22673;SDS011;11504;43.334;21.918;2024-02-23T16:05:57;12.0;;;12.0;;
22673;SDS011;11504;43.334;21.918;2024-02-23T16:10:33;13.0;;;12.0;;
22673;SDS011;11504;43.334;21.918;2024-02-23T16:15:09;13.0;;;12.0;;
22673;SDS011;11504;43.334;21.918;2024-02-23T16:19:45;13.0;;;12.0;;
22673;SDS011;11504;43.334;21.918;2024-02-23T16:24:22;13.0;;;12.0;;
22673;SDS011;11504;43.334;21.918;2024-02-23T16:28:58;13.0;;;12.0;;
22673;SDS011;11504;43.334;21.918;2024-02-23T16:33:34;13.0;;;13.0;;
22673;SDS011;11504;43.334;21.918;2024-02-23T16:38:10;13.0;;;13.0;;
22673;SDS011;11504;43.334;21.918;2024-02-23T16:42:47;16.0;;;16.0;;
22673;SDS011;11504;43.334;21.918;2024-02-23T16:47:23;16.0;;;16.0;;
22673;SDS011;11504;43.334;21.918;2024-02-23T16:51:59;20.0;;;19.0;;
22673;SDS011;11504;43.334;21.918;2024-02-23T16:56:36;20.0;;;19.0;;
22673;SDS011;11504;43.334;21.918;2024-02-23T17:01:12;20.0;;;19.0;;
22673;SDS011;11504;43.334;21.918;2024-02-23T17:05:49;20.0;;;19.0;;
22673;SDS011;11504;43.334;21.918;2024-02-23T17:10:25;19.0;;;19.0;;
22673;SDS011;11504;43.334;21.918;2024-02-23T17:15:02;19.0;;;19.0;;
22673;SDS011;11504;43.334;21.918;2024-02-23T17:19:41;20.0;;;18.0;;
22673;SDS011;11504;43.334;21.918;2024-02-23T17:24:18;20.0;;;18.0;;
22673;SDS011;11504;43.334;21.918;2024-02-23T17:28:54;20.0;;;18.0;;
22673;SDS011;11504;43.334;21.918;2024-02-23T17:33:31;21.0;;;18.0;;
22673;SDS011;11504;43.334;21.918;2024-02-23T17:38:07;21.0;;;18.0;;
22673;SDS011;11504;43.334;21.918;2024-02-23T17:42:43;22.0;;;20.0;;
22673;SDS011;11504;43.334;21.918;2024-02-23T17:47:19;22.0;;;20.0;;
22673;SDS011;11504;43.334;21.918;2024-02-23T17:51:56;24.0;;;22.0;;
22673;SDS011;11504;43.334;21.918;2024-02-23T17:56:32;24.0;;;22.0;;
22673;SDS011;11504;43.334;21.918;2024-02-23T18:01:08;26.0;;;22.0;;
22673;SDS011;11504;43.334;21.918;2024-02-23T18:05:45;26.0;;;22.0;;
22673;SDS011;11504;43.334;21.918;2024-02-23T18:10:22;27.0;;;23.0;;
22673;SDS011;11504;43.334;21.918;2024-02-23T18:14:59;27.0;;;23.0;;
22673;SDS011;11504;43.334;21.918;2024-02-23T18:19:35;24.0;;;22.0;;
22673;SDS011;11504;43.334;21.918;2024-02-23T18:24:12;24.0;;;22.0;;
22673;SDS011;11504;43.334;21.918;2024-02-23T18:28:48;24.0;;;22.0;;
22673;SDS011;11504;43.334;21.918;2024-02-23T18:33:24;21.0;;;20.0;;
22673;SDS011;11504;43.334;21.918;2024-02-23T18:38:00;21.0;;;20.0;;
22673;SDS011;11504;43.334;21.918;2024-02-23T18:42:37;20.0;;;17.0;;
22673;SDS011;11504;43.334;21.918;2024-02-23T18:47:12;20.0;;;17.0;;
22673;SDS011;11504;43.334;21.918;2024-02-23T18:51:49;19.0;;;14.0;;
22673;SDS011;11504;43.334;21.918;2024-02-23T18:56:24;19.0;;;14.0;;
22673;SDS011;11504;43.334;21.918;2024-02-23T19:01:00;18.0;;;14.0;;
22673;SDS011;11504;43.334;21.918;2024-02-23T19:05:36;18.0;;;14.0;;
22673;SDS011;11504;43.334;21.918;2024-02-23T19:10:13;16.0;;;15.0;;
22673;SDS011;11504;43.334;21.918;2024-02-23T19:14:49;16.0;;;15.0;;
22673;SDS011;11504;43.334;21.918;2024-02-23T19:19:25;16.0;;;15.0;;
22673;SDS011;11504;43.334;21.918;2024-02-23T19:24:01;16.0;;;14.0;;
22673;SDS011;11504;43.334;21.918;2024-02-23T19:28:37;16.0;;;14.0;;
22673;SDS011;11504;43.334;21.918;2024-02-23T19:33:13;15.0;;;14.0;;
22673;SDS011;11504;43.334;21.918;2024-02-23T19:37:49;15.0;;;14.0;;
22673;SDS011;11504;43.334;21.918;2024-02-23T19:42:26;15.0;;;14.0;;
22673;SDS011;11504;43.334;21.918;2024-02-23T19:47:02;15.0;;;14.0;;
22673;SDS011;11504;43.334;21.918;2024-02-23T20:00:52;32.0;;;31.0;;
22673;SDS011;11504;43.334;21.918;2024-02-23T20:05:29;32.0;;;31.0;;
22673;SDS011;11504;43.334;21.918;2024-02-23T20:10:08;32.0;;;31.0;;
22673;SDS011;11504;43.334;21.918;2024-02-23T20:14:44;32.0;;;31.0;;
22673;SDS011;11504;43.334;21.918;2024-02-23T20:19:21;32.0;;;31.0;;
22673;SDS011;11504;43.334;21.918;2024-02-23T20:23:57;31.0;;;30.0;;
22673;SDS011;11504;43.334;21.918;2024-02-23T20:28:34;31.0;;;30.0;;
22673;SDS011;11504;43.334;21.918;2024-02-23T20:33:09;30.0;;;29.0;;
22673;SDS011;11504;43.334;21.918;2024-02-23T20:37:45;30.0;;;29.0;;
22673;SDS011;11504;43.334;21.918;2024-02-23T20:42:21;24.0;;;24.0;;
22673;SDS011;11504;43.334;21.918;2024-02-23T20:46:58;24.0;;;24.0;;
22673;SDS011;11504;43.334;21.918;2024-02-23T20:51:35;18.0;;;18.0;;
22673;SDS011;11504;43.334;21.918;2024-02-23T20:56:12;18.0;;;18.0;;
22673;SDS011;11504;43.334;21.918;2024-02-23T21:00:50;18.0;;;18.0;;
22673;SDS011;11504;43.334;21.918;2024-02-23T21:05:27;18.0;;;18.0;;
22673;SDS011;11504;43.334;21.918;2024-02-23T21:10:05;18.0;;;17.0;;
22673;SDS011;11504;43.334;21.918;2024-02-23T21:14:43;18.0;;;17.0;;
22673;SDS011;11504;43.334;21.918;2024-02-23T21:19:19;18.0;;;17.0;;
22673;SDS011;11504;43.334;21.918;2024-02-23T21:23:55;18.0;;;17.0;;
22673;SDS011;11504;43.334;21.918;2024-02-23T21:28:31;18.0;;;17.0;;
22673;SDS011;11504;43.334;21.918;2024-02-23T21:33:07;17.0;;;17.0;;
22673;SDS011;11504;43.334;21.918;2024-02-23T21:37:43;17.0;;;17.0;;
22673;SDS011;11504;43.334;21.918;2024-02-23T21:42:19;18.0;;;17.0;;
22673;SDS011;11504;43.334;21.918;2024-02-23T21:46:54;18.0;;;17.0;;
22673;SDS011;11504;43.334;21.918;2024-02-23T21:51:31;18.0;;;17.0;;
22673;SDS011;11504;43.334;21.918;2024-02-23T21:56:06;18.0;;;17.0;;
22673;SDS011;11504;43.334;21.918;2024-02-23T22:00:42;20.0;;;18.0;;
22673;SDS011;11504;43.334;21.918;2024-02-23T22:05:19;20.0;;;18.0;;
22673;SDS011;11504;43.334;21.918;2024-02-23T22:09:55;22.0;;;20.0;;
22673;SDS011;11504;43.334;21.918;2024-02-23T22:14:31;22.0;;;20.0;;
22673;SDS011;11504;43.334;21.918;2024-02-23T22:19:07;22.0;;;20.0;;
22673;SDS011;11504;43.334;21.918;2024-02-23T22:23:44;20.0;;;18.0;;
22673;SDS011;11504;43.334;21.918;2024-02-23T22:28:20;20.0;;;18.0;;
22673;SDS011;11504;43.334;21.918;2024-02-23T22:32:57;17.0;;;17.0;;
22673;SDS011;11504;43.334;21.918;2024-02-23T22:37:34;17.0;;;17.0;;
22673;SDS011;11504;43.334;21.918;2024-02-23T22:42:11;18.0;;;18.0;;
22673;SDS011;11504;43.334;21.918;2024-02-23T22:46:47;18.0;;;18.0;;
22673;SDS011;11504;43.334;21.918;2024-02-23T22:51:24;19.0;;;18.0;;
22673;SDS011;11504;43.334;21.918;2024-02-23T22:56:00;19.0;;;18.0;;
22673;SDS011;11504;43.334;21.918;2024-02-23T23:00:36;20.0;;;18.0;;
22673;SDS011;11504;43.334;21.918;2024-02-23T23:05:12;20.0;;;18.0;;
22673;SDS011;11504;43.334;21.918;2024-02-23T23:09:48;20.0;;;19.0;;
22673;SDS011;11504;43.334;21.918;2024-02-23T23:14:24;20.0;;;19.0;;
22673;SDS011;11504;43.334;21.918;2024-02-23T23:19:01;20.0;;;19.0;;
22673;SDS011;11504;43.334;21.918;2024-02-23T23:23:37;18.0;;;16.0;;
22673;SDS011;11504;43.334;21.918;2024-02-23T23:28:13;18.0;;;16.0;;
22673;SDS011;11504;43.334;21.918;2024-02-23T23:32:50;15.0;;;14.0;;
22673;SDS011;11504;43.334;21.918;2024-02-23T23:37:26;15.0;;;14.0;;
22673;SDS011;11504;43.334;21.918;2024-02-23T23:42:03;14.0;;;14.0;;
22673;SDS011;11504;43.334;21.918;2024-02-23T23:46:40;14.0;;;14.0;;
22673;SDS011;11504;43.334;21.918;2024-02-23T23:51:16;13.0;;;13.0;;
22673;SDS011;11504;43.334;21.918;2024-02-23T23:55:53;13.0;;;13.0;;
